createdAt,value
2018-03-26T00:00:32.417Z,22.77
2018-03-26T00:01:41.510Z,22.8
2018-03-26T00:02:50.491Z,22.73
2018-03-26T00:03:59.728Z,22.7
2018-03-26T00:05:09.155Z,22.68
2018-03-26T00:06:18.459Z,22.75
2018-03-26T00:07:27.482Z,22.67
2018-03-26T00:08:36.840Z,22.7
2018-03-26T00:09:46.163Z,22.67
2018-03-26T00:10:55.395Z,22.73
2018-03-26T00:12:04.548Z,22.72
2018-03-26T00:13:13.955Z,22.72
2018-03-26T00:14:22.700Z,22.67
2018-03-26T00:15:31.458Z,22.7
2018-03-26T00:16:41.432Z,22.72
2018-03-26T00:17:50.830Z,22.64
2018-03-26T00:18:59.829Z,22.72
2018-03-26T00:20:08.798Z,22.72
2018-03-26T00:21:17.753Z,22.73
2018-03-26T00:22:26.879Z,22.67
2018-03-26T00:23:36.479Z,22.7
2018-03-26T00:24:45.656Z,22.64
2018-03-26T00:25:54.737Z,22.57
2018-03-26T00:27:03.793Z,22.73
2018-03-26T00:28:12.776Z,22.6
2018-03-26T00:29:21.835Z,22.65
2018-03-26T00:30:30.976Z,22.61
2018-03-26T00:31:40.068Z,22.61
2018-03-26T00:32:49.308Z,22.65
2018-03-26T00:33:58.602Z,22.55
2018-03-26T00:35:07.659Z,22.58
2018-03-26T00:36:17.197Z,22.58
2018-03-26T00:37:26.429Z,22.67
2018-03-26T00:38:36.237Z,22.67
2018-03-26T00:39:45.520Z,22.6
2018-03-26T00:40:54.255Z,22.61
2018-03-26T00:42:03.249Z,22.6
2018-03-26T00:43:12.270Z,22.67
2018-03-26T00:44:21.244Z,22.61
2018-03-26T00:45:30.211Z,22.6
2018-03-26T00:46:39.699Z,22.65
2018-03-26T00:47:48.661Z,22.62
2018-03-26T00:48:57.973Z,22.55
2018-03-26T00:50:07.241Z,22.6
2018-03-26T00:51:16.625Z,22.52
2018-03-26T00:52:25.947Z,22.64
2018-03-26T00:53:35.441Z,22.54
2018-03-26T00:54:44.457Z,22.52
2018-03-26T00:55:53.193Z,22.6
2018-03-26T00:57:02.542Z,22.6
2018-03-26T00:58:11.593Z,22.64
2018-03-26T00:59:20.324Z,22.57
2018-03-26T01:00:29.588Z,22.51
2018-03-26T01:01:38.694Z,22.65
2018-03-26T01:02:47.662Z,22.52
2018-03-26T01:03:56.937Z,22.54
2018-03-26T01:05:06.418Z,22.58
2018-03-26T01:06:16.188Z,22.55
2018-03-26T01:07:24.945Z,22.52
2018-03-26T01:08:33.755Z,22.57
2018-03-26T01:09:43.036Z,22.57
2018-03-26T01:10:52.133Z,22.54
2018-03-26T01:12:01.204Z,22.6
2018-03-26T01:13:10.409Z,22.57
2018-03-26T01:14:19.446Z,22.6
2018-03-26T01:15:28.762Z,22.55
2018-03-26T01:16:37.775Z,22.58
2018-03-26T01:17:47.046Z,22.6
2018-03-26T01:18:55.841Z,22.57
2018-03-26T01:20:05.111Z,22.61
2018-03-26T01:21:14.390Z,22.49
2018-03-26T01:22:23.699Z,22.55
2018-03-26T01:23:32.447Z,22.61
2018-03-26T01:24:41.428Z,22.58
2018-03-26T01:25:50.644Z,22.55
2018-03-26T01:26:59.881Z,22.61
2018-03-26T01:28:08.909Z,22.55
2018-03-26T01:29:17.641Z,22.57
2018-03-26T01:30:26.758Z,22.55
2018-03-26T01:31:35.988Z,22.47
2018-03-26T01:32:44.952Z,22.6
2018-03-26T01:33:53.713Z,22.47
2018-03-26T01:35:02.942Z,22.51
2018-03-26T01:36:11.672Z,22.52
2018-03-26T01:37:20.647Z,22.54
2018-03-26T01:38:30.303Z,22.47
2018-03-26T01:39:39.266Z,22.47
2018-03-26T01:40:48.002Z,22.51
2018-03-26T01:41:57.578Z,22.43
2018-03-26T01:43:07.339Z,22.43
2018-03-26T01:44:16.360Z,22.42
2018-03-26T01:45:25.474Z,22.36
2018-03-26T01:46:35.018Z,22.42
2018-03-26T01:47:43.777Z,22.47
2018-03-26T01:48:53.035Z,22.46
2018-03-26T01:50:01.712Z,22.47
2018-03-26T01:51:10.426Z,22.47
2018-03-26T01:52:19.680Z,22.47
2018-03-26T01:53:28.372Z,22.42
2018-03-26T01:54:37.402Z,22.46
2018-03-26T01:55:46.122Z,22.46
2018-03-26T01:56:55.084Z,22.46
2018-03-26T01:58:04.055Z,22.47
2018-03-26T01:59:13.020Z,22.4
2018-03-26T02:00:22.010Z,22.45
2018-03-26T02:01:31.536Z,22.47
2018-03-26T02:02:40.804Z,22.4
2018-03-26T02:03:49.619Z,22.47
2018-03-26T02:04:59.125Z,22.37
2018-03-26T02:06:08.050Z,22.46
2018-03-26T02:07:17.263Z,22.37
2018-03-26T02:08:26.267Z,22.39
2018-03-26T02:09:35.323Z,22.39
2018-03-26T02:10:44.605Z,22.39
2018-03-26T02:11:53.903Z,22.37
2018-03-26T02:13:03.153Z,22.36
2018-03-26T02:14:12.175Z,22.37
2018-03-26T02:15:21.469Z,22.35
2018-03-26T02:16:30.802Z,22.39
2018-03-26T02:17:40.042Z,22.37
2018-03-26T02:18:49.519Z,22.35
2018-03-26T02:19:58.539Z,22.33
2018-03-26T02:21:07.620Z,22.36
2018-03-26T02:22:16.352Z,22.28
2018-03-26T02:23:25.103Z,22.31
2018-03-26T02:24:34.895Z,22.35
2018-03-26T02:25:43.977Z,22.35
2018-03-26T02:26:52.955Z,22.3
2018-03-26T02:28:02.246Z,22.27
2018-03-26T02:29:10.978Z,22.35
2018-03-26T02:30:19.999Z,22.27
2018-03-26T02:31:29.257Z,22.28
2018-03-26T02:32:38.216Z,22.27
2018-03-26T02:33:47.479Z,22.28
2018-03-26T02:34:56.515Z,22.3
2018-03-26T02:36:06.045Z,22.24
2018-03-26T02:37:15.272Z,22.24
2018-03-26T02:38:24.002Z,22.28
2018-03-26T02:39:32.990Z,22.33
2018-03-26T02:40:42.245Z,22.25
2018-03-26T02:41:51.345Z,22.28
2018-03-26T02:43:00.106Z,22.28
2018-03-26T02:44:09.664Z,22.27
2018-03-26T02:45:18.636Z,22.27
2018-03-26T02:46:27.662Z,22.25
2018-03-26T02:47:36.627Z,22.31
2018-03-26T02:48:45.408Z,22.25
2018-03-26T02:49:54.689Z,22.21
2018-03-26T02:51:04.528Z,22.25
2018-03-26T02:52:13.531Z,22.22
2018-03-26T02:53:22.938Z,22.22
2018-03-26T02:54:31.935Z,22.22
2018-03-26T02:55:40.964Z,22.18
2018-03-26T02:56:49.648Z,22.25
2018-03-26T02:58:00.182Z,22.14
2018-03-26T02:59:09.683Z,22.17
2018-03-26T03:00:19.339Z,22.22
2018-03-26T03:01:28.596Z,22.27
2018-03-26T03:02:37.906Z,22.18
2018-03-26T03:03:47.108Z,22.2
2018-03-26T03:04:55.823Z,22.22
2018-03-26T03:06:05.340Z,22.15
2018-03-26T03:07:14.278Z,22.15
2018-03-26T03:08:23.287Z,22.18
2018-03-26T03:09:33.131Z,22.21
2018-03-26T03:10:42.157Z,22.22
2018-03-26T03:11:50.870Z,22.2
2018-03-26T03:12:59.645Z,22.17
2018-03-26T03:14:09.195Z,22.15
2018-03-26T03:15:18.199Z,22.18
2018-03-26T03:16:26.887Z,22.18
2018-03-26T03:17:36.365Z,22.25
2018-03-26T03:18:45.596Z,22.22
2018-03-26T03:19:54.590Z,22.2
2018-03-26T03:21:04.324Z,22.25
2018-03-26T03:22:13.340Z,22.17
2018-03-26T03:23:23.117Z,22.21
2018-03-26T03:24:32.351Z,22.2
2018-03-26T03:25:41.756Z,22.21
2018-03-26T03:26:50.741Z,22.22
2018-03-26T03:27:59.699Z,22.2
2018-03-26T03:29:08.983Z,22.21
2018-03-26T03:30:17.986Z,22.21
2018-03-26T03:31:27.496Z,22.21
2018-03-26T03:32:37.048Z,22.17
2018-03-26T03:33:46.326Z,22.17
2018-03-26T03:34:55.352Z,22.09
2018-03-26T03:36:04.830Z,22.17
2018-03-26T03:37:13.821Z,22.18
2018-03-26T03:38:22.828Z,22.18
2018-03-26T03:39:32.391Z,22.18
2018-03-26T03:40:41.374Z,22.17
2018-03-26T03:41:50.439Z,22.17
2018-03-26T03:42:59.425Z,22.14
2018-03-26T03:44:09.002Z,22.05
2018-03-26T03:45:17.969Z,22.14
2018-03-26T03:46:27.187Z,22.14
2018-03-26T03:47:36.699Z,22.05
2018-03-26T03:48:45.950Z,22.07
2018-03-26T03:49:54.664Z,22.09
2018-03-26T03:51:03.655Z,22.12
2018-03-26T03:52:13.000Z,22.03
2018-03-26T03:53:21.972Z,22.07
2018-03-26T03:54:31.216Z,22.06
2018-03-26T03:55:40.497Z,22.03
2018-03-26T03:56:49.510Z,22.06
2018-03-26T03:57:58.541Z,22.05
2018-03-26T03:59:07.748Z,22.06
2018-03-26T04:00:16.716Z,22.05
2018-03-26T04:01:25.760Z,22.12
2018-03-26T04:02:34.791Z,22.03
2018-03-26T04:03:44.065Z,22.07
2018-03-26T04:04:53.053Z,22.09
2018-03-26T04:06:02.348Z,22.07
2018-03-26T04:07:11.828Z,21.98
2018-03-26T04:08:21.370Z,21.98
2018-03-26T04:09:30.305Z,21.99
2018-03-26T04:10:39.850Z,21.98
2018-03-26T04:11:48.816Z,21.99
2018-03-26T04:12:58.403Z,21.98
2018-03-26T04:14:07.557Z,21.98
2018-03-26T04:15:16.518Z,21.96
2018-03-26T04:16:25.608Z,22
2018-03-26T04:17:34.855Z,22
2018-03-26T04:18:44.077Z,22.06
2018-03-26T04:19:53.067Z,22.02
2018-03-26T04:21:02.321Z,21.98
2018-03-26T04:22:11.307Z,21.99
2018-03-26T04:23:20.609Z,22
2018-03-26T04:24:29.926Z,21.98
2018-03-26T04:25:38.622Z,22
2018-03-26T04:26:48.113Z,21.96
2018-03-26T04:27:57.335Z,21.96
2018-03-26T04:29:06.598Z,21.91
2018-03-26T04:30:15.422Z,22.06
2018-03-26T04:31:24.194Z,22.02
2018-03-26T04:32:33.470Z,22.06
2018-03-26T04:33:42.748Z,22.03
2018-03-26T04:34:52.032Z,21.99
2018-03-26T04:36:00.798Z,22.05
2018-03-26T04:37:10.279Z,22.06
2018-03-26T04:38:19.292Z,21.91
2018-03-26T04:39:28.004Z,21.98
2018-03-26T04:40:36.711Z,21.96
2018-03-26T04:41:45.720Z,22
2018-03-26T04:42:54.986Z,22
2018-03-26T04:44:03.748Z,21.91
2018-03-26T04:45:12.807Z,21.88
2018-03-26T04:46:22.118Z,21.94
2018-03-26T04:47:31.362Z,21.99
2018-03-26T04:48:40.655Z,21.99
2018-03-26T04:49:49.662Z,21.91
2018-03-26T04:50:58.419Z,21.94
2018-03-26T04:52:07.417Z,22.03
2018-03-26T04:53:16.395Z,21.99
2018-03-26T04:54:26.157Z,21.96
2018-03-26T04:55:35.204Z,22.03
2018-03-26T04:56:44.463Z,22.02
2018-03-26T04:57:53.497Z,21.96
2018-03-26T04:59:02.746Z,21.99
2018-03-26T05:00:11.752Z,21.94
2018-03-26T05:01:20.764Z,21.98
2018-03-26T05:02:29.978Z,22
2018-03-26T05:03:39.494Z,21.94
2018-03-26T05:04:48.283Z,22
2018-03-26T05:05:57.482Z,21.98
2018-03-26T05:07:06.183Z,21.94
2018-03-26T05:08:15.705Z,21.96
2018-03-26T05:09:24.671Z,21.99
2018-03-26T05:10:33.694Z,21.92
2018-03-26T05:11:42.681Z,21.91
2018-03-26T05:12:51.708Z,21.96
2018-03-26T05:14:01.229Z,21.9
2018-03-26T05:15:10.224Z,21.9
2018-03-26T05:16:19.198Z,21.99
2018-03-26T05:17:28.730Z,21.98
2018-03-26T05:18:38.196Z,21.86
2018-03-26T05:19:47.010Z,21.99
2018-03-26T05:20:56.241Z,21.96
2018-03-26T05:22:05.512Z,22
2018-03-26T05:23:14.778Z,22
2018-03-26T05:24:24.018Z,21.94
2018-03-26T05:25:33.739Z,21.86
2018-03-26T05:26:42.938Z,21.94
2018-03-26T05:27:52.205Z,21.86
2018-03-26T05:29:01.152Z,21.92
2018-03-26T05:30:10.129Z,21.88
2018-03-26T05:31:19.707Z,21.91
2018-03-26T05:32:28.401Z,21.84
2018-03-26T05:33:37.364Z,21.86
2018-03-26T05:34:46.862Z,21.91
2018-03-26T05:35:56.110Z,21.88
2018-03-26T05:37:05.063Z,21.88
2018-03-26T05:38:14.552Z,21.84
2018-03-26T05:39:23.801Z,21.84
2018-03-26T05:40:32.805Z,21.83
2018-03-26T05:41:42.053Z,21.84
2018-03-26T05:42:51.039Z,21.84
2018-03-26T05:43:59.763Z,21.79
2018-03-26T05:45:08.526Z,21.83
2018-03-26T05:46:17.212Z,21.82
2018-03-26T05:47:25.933Z,21.75
2018-03-26T05:48:35.183Z,21.72
2018-03-26T05:49:44.419Z,21.72
2018-03-26T05:50:53.645Z,21.72
2018-03-26T05:52:02.874Z,21.77
2018-03-26T05:53:12.094Z,21.72
2018-03-26T05:54:21.321Z,21.71
2018-03-26T05:55:30.318Z,21.71
2018-03-26T05:56:39.562Z,21.71
2018-03-26T05:57:49.066Z,21.67
2018-03-26T05:58:57.777Z,21.65
2018-03-26T06:00:06.742Z,21.59
2018-03-26T06:01:16.245Z,21.61
2018-03-26T06:02:25.741Z,21.59
2018-03-26T06:03:34.740Z,21.56
2018-03-26T06:04:44.505Z,21.53
2018-03-26T06:05:53.449Z,21.53
2018-03-26T06:07:28.738Z,21.58
2018-03-26T06:08:37.695Z,21.59
2018-03-26T06:09:46.646Z,21.5
2018-03-26T06:10:56.154Z,21.47
2018-03-26T06:12:04.854Z,21.56
2018-03-26T06:13:14.078Z,21.62
2018-03-26T06:14:22.872Z,21.68
2018-03-26T06:15:32.183Z,21.82
2018-03-26T06:16:41.026Z,21.9
2018-03-26T06:17:50.056Z,22
2018-03-26T06:18:59.647Z,21.94
2018-03-26T06:20:08.628Z,22.05
2018-03-26T06:21:17.870Z,22.18
2018-03-26T06:22:27.102Z,22.22
2018-03-26T06:23:36.084Z,22.24
2018-03-26T06:24:44.779Z,22.37
2018-03-26T06:25:53.884Z,22.45
2018-03-26T06:27:03.377Z,22.46
2018-03-26T06:28:12.417Z,22.6
2018-03-26T06:29:21.437Z,22.61
2018-03-26T06:30:30.430Z,22.58
2018-03-26T06:31:39.450Z,22.73
2018-03-26T06:32:49.031Z,22.72
2018-03-26T06:33:58.549Z,22.79
2018-03-26T06:35:07.830Z,22.92
2018-03-26T06:36:17.414Z,22.92
2018-03-26T06:37:26.124Z,23
2018-03-26T06:38:34.816Z,23
2018-03-26T06:39:44.084Z,23.07
2018-03-26T06:40:53.057Z,23.02
2018-03-26T06:42:01.905Z,23.13
2018-03-26T06:43:11.710Z,23.09
2018-03-26T06:44:21.112Z,23.23
2018-03-26T06:45:30.156Z,23.22
2018-03-26T06:46:39.179Z,23.27
2018-03-26T06:47:48.524Z,23.19
2018-03-26T06:48:57.552Z,23.22
2018-03-26T06:50:06.609Z,23.15
2018-03-26T06:51:16.211Z,23.23
2018-03-26T06:52:25.493Z,23.23
2018-03-26T06:53:34.523Z,23.23
2018-03-26T06:54:44.085Z,23.16
2018-03-26T06:55:53.356Z,23.22
2018-03-26T06:57:02.717Z,23.19
2018-03-26T06:58:11.985Z,23.15
2018-03-26T06:59:20.973Z,23.25
2018-03-26T07:00:29.961Z,23.22
2018-03-26T07:01:38.712Z,23.2
2018-03-26T07:02:47.792Z,23.19
2018-03-26T07:03:57.543Z,23.2
2018-03-26T07:05:06.851Z,23.2
2018-03-26T07:06:15.900Z,23.17
2018-03-26T07:07:24.665Z,23.16
2018-03-26T07:08:34.458Z,23.16
2018-03-26T07:09:43.733Z,23.19
2018-03-26T07:10:53.025Z,23.05
2018-03-26T07:12:02.035Z,23.16
2018-03-26T07:13:11.100Z,23.07
2018-03-26T07:14:20.180Z,23.16
2018-03-26T07:15:29.177Z,23.09
2018-03-26T07:16:38.289Z,23.07
2018-03-26T07:17:47.606Z,23.01
2018-03-26T07:18:57.151Z,23.05
2018-03-26T07:20:06.732Z,23.02
2018-03-26T07:21:15.420Z,23.02
2018-03-26T07:22:24.963Z,23.07
2018-03-26T07:23:33.728Z,22.98
2018-03-26T07:24:42.439Z,23.01
2018-03-26T07:25:51.738Z,22.88
2018-03-26T07:27:01.042Z,22.95
2018-03-26T07:28:10.364Z,22.98
2018-03-26T07:29:19.356Z,22.97
2018-03-26T07:30:28.613Z,22.88
2018-03-26T07:31:37.435Z,22.97
2018-03-26T07:32:46.156Z,22.88
2018-03-26T07:33:55.395Z,22.9
2018-03-26T07:35:04.419Z,22.83
2018-03-26T07:36:13.152Z,22.83
2018-03-26T07:37:21.889Z,22.82
2018-03-26T07:38:30.937Z,22.77
2018-03-26T07:39:40.839Z,22.83
2018-03-26T07:40:49.914Z,22.77
2018-03-26T07:41:58.689Z,22.79
2018-03-26T07:43:07.460Z,22.76
2018-03-26T07:44:16.942Z,22.77
2018-03-26T07:45:25.651Z,22.8
2018-03-26T07:46:34.981Z,22.7
2018-03-26T07:47:44.544Z,22.76
2018-03-26T07:48:53.530Z,22.73
2018-03-26T07:50:02.560Z,22.7
2018-03-26T07:51:11.800Z,22.7
2018-03-26T07:52:20.830Z,22.68
2018-03-26T07:53:29.829Z,22.7
2018-03-26T07:54:39.130Z,22.7
2018-03-26T07:55:48.380Z,22.72
2018-03-26T07:56:57.701Z,22.6
2018-03-26T07:58:06.939Z,22.68
2018-03-26T07:59:16.225Z,22.6
2018-03-26T08:00:25.033Z,22.57
2018-03-26T08:01:34.191Z,22.57
2018-03-26T08:02:43.533Z,22.61
2018-03-26T08:03:52.589Z,22.62
2018-03-26T08:05:01.637Z,22.67
2018-03-26T08:06:10.955Z,22.52
2018-03-26T08:07:20.566Z,22.61
2018-03-26T08:08:29.899Z,22.67
2018-03-26T08:09:38.649Z,22.54
2018-03-26T08:10:48.182Z,22.67
2018-03-26T08:11:56.943Z,22.62
2018-03-26T08:13:05.807Z,22.57
2018-03-26T08:14:14.629Z,22.65
2018-03-26T08:15:23.338Z,22.52
2018-03-26T08:16:32.378Z,22.61
2018-03-26T08:17:41.394Z,22.6
2018-03-26T08:18:50.483Z,22.55
2018-03-26T08:19:59.467Z,22.58
2018-03-26T08:21:08.997Z,22.65
2018-03-26T08:22:18.264Z,22.64
2018-03-26T08:23:27.570Z,22.51
2018-03-26T08:24:36.275Z,22.58
2018-03-26T08:25:45.296Z,22.55
2018-03-26T08:26:54.900Z,22.55
2018-03-26T08:28:03.867Z,22.61
2018-03-26T08:29:12.893Z,22.54
2018-03-26T08:30:21.899Z,22.57
2018-03-26T08:31:31.736Z,22.54
2018-03-26T08:32:40.857Z,22.54
2018-03-26T08:33:49.875Z,22.61
2018-03-26T08:34:59.660Z,22.6
2018-03-26T08:36:08.678Z,22.54
2018-03-26T08:37:18.054Z,22.6
2018-03-26T08:38:27.071Z,22.58
2018-03-26T08:39:35.786Z,22.61
2018-03-26T08:40:45.163Z,22.57
2018-03-26T08:41:54.042Z,22.54
2018-03-26T08:43:03.042Z,22.52
2018-03-26T08:44:12.067Z,22.52
2018-03-26T08:45:21.397Z,22.51
2018-03-26T08:46:30.627Z,22.47
2018-03-26T08:47:39.609Z,22.46
2018-03-26T08:48:48.915Z,22.57
2018-03-26T08:49:57.807Z,22.61
2018-03-26T08:51:07.288Z,22.54
2018-03-26T08:52:16.092Z,22.52
2018-03-26T08:53:29.364Z,22.55
2018-03-26T08:54:38.994Z,22.6
2018-03-26T08:55:48.062Z,22.52
2018-03-26T08:56:56.769Z,22.58
2018-03-26T08:58:05.812Z,22.54
2018-03-26T08:59:14.847Z,22.57
2018-03-26T09:00:24.441Z,22.43
2018-03-26T09:01:33.216Z,22.46
2018-03-26T09:02:42.233Z,22.52
2018-03-26T09:03:51.771Z,22.57
2018-03-26T09:05:00.507Z,22.55
2018-03-26T09:06:09.838Z,22.54
2018-03-26T09:07:18.532Z,22.52
2018-03-26T09:08:27.857Z,22.51
2018-03-26T09:09:37.314Z,22.52
2018-03-26T09:10:46.905Z,22.54
2018-03-26T09:11:56.220Z,22.46
2018-03-26T09:13:05.543Z,22.51
2018-03-26T09:14:14.491Z,22.57
2018-03-26T09:15:23.730Z,22.47
2018-03-26T09:16:32.765Z,22.58
2018-03-26T09:17:41.566Z,22.54
2018-03-26T09:18:50.832Z,22.51
2018-03-26T09:19:59.818Z,22.57
2018-03-26T09:21:09.095Z,22.55
2018-03-26T09:22:17.859Z,22.58
2018-03-26T09:23:26.869Z,22.55
2018-03-26T09:24:36.153Z,22.57
2018-03-26T09:25:45.704Z,22.57
2018-03-26T09:26:54.681Z,22.58
2018-03-26T09:28:03.494Z,22.62
2018-03-26T09:29:12.608Z,22.52
2018-03-26T09:30:22.137Z,22.58
2018-03-26T09:31:31.412Z,22.55
2018-03-26T09:32:41.075Z,22.55
2018-03-26T09:33:50.411Z,22.67
2018-03-26T09:34:59.722Z,22.58
2018-03-26T09:36:08.455Z,22.6
2018-03-26T09:37:18.418Z,22.61
2018-03-26T09:38:27.764Z,22.55
2018-03-26T09:39:37.068Z,22.57
2018-03-26T09:40:45.819Z,22.64
2018-03-26T09:41:55.317Z,22.67
2018-03-26T09:43:04.592Z,22.58
2018-03-26T09:44:14.161Z,22.67
2018-03-26T09:45:23.407Z,22.67
2018-03-26T09:46:32.936Z,22.73
2018-03-26T09:47:41.992Z,22.65
2018-03-26T09:48:51.586Z,22.72
2018-03-26T09:50:00.866Z,22.72
2018-03-26T09:51:09.997Z,22.72
2018-03-26T09:52:19.257Z,22.72
2018-03-26T09:53:28.602Z,22.7
2018-03-26T09:54:38.180Z,22.68
2018-03-26T09:55:47.394Z,22.76
2018-03-26T09:56:56.495Z,22.72
2018-03-26T09:58:06.023Z,22.72
2018-03-26T09:59:15.252Z,22.61
2018-03-26T10:00:24.000Z,22.65
2018-03-26T10:01:33.282Z,22.65
2018-03-26T10:02:42.364Z,22.62
2018-03-26T10:03:51.886Z,22.6
2018-03-26T10:05:01.233Z,22.58
2018-03-26T10:06:10.332Z,22.61
2018-03-26T10:07:19.303Z,22.6
2018-03-26T10:08:28.368Z,22.6
2018-03-26T10:09:37.542Z,22.7
2018-03-26T10:10:46.561Z,22.6
2018-03-26T10:11:55.883Z,22.6
2018-03-26T10:13:04.946Z,22.62
2018-03-26T10:14:14.528Z,22.57
2018-03-26T10:15:23.281Z,22.58
2018-03-26T10:16:32.095Z,22.6
2018-03-26T10:17:41.481Z,22.55
2018-03-26T10:18:50.584Z,22.55
2018-03-26T10:19:59.692Z,22.58
2018-03-26T10:21:08.428Z,22.6
2018-03-26T10:22:17.126Z,22.57
2018-03-26T10:23:25.974Z,22.57
2018-03-26T10:24:34.978Z,22.67
2018-03-26T10:25:44.000Z,22.57
2018-03-26T10:26:53.616Z,22.6
2018-03-26T10:28:02.433Z,22.65
2018-03-26T10:29:12.063Z,22.67
2018-03-26T10:30:21.084Z,22.57
2018-03-26T10:31:30.676Z,22.65
2018-03-26T10:32:40.007Z,22.67
2018-03-26T10:33:49.557Z,22.62
2018-03-26T10:34:58.963Z,22.58
2018-03-26T10:36:07.964Z,22.55
2018-03-26T10:37:16.940Z,22.61
2018-03-26T10:38:26.538Z,22.55
2018-03-26T10:39:35.634Z,22.61
2018-03-26T10:40:44.658Z,22.6
2018-03-26T10:41:53.745Z,22.62
2018-03-26T10:43:02.783Z,22.57
2018-03-26T10:44:12.087Z,22.6
2018-03-26T10:45:21.169Z,22.52
2018-03-26T10:46:30.422Z,22.58
2018-03-26T10:47:39.734Z,22.58
2018-03-26T10:48:48.502Z,22.67
2018-03-26T10:49:57.725Z,22.65
2018-03-26T10:51:07.060Z,22.67
2018-03-26T10:52:15.772Z,22.49
2018-03-26T10:53:24.539Z,22.57
2018-03-26T10:54:33.356Z,22.64
2018-03-26T10:55:42.404Z,22.61
2018-03-26T10:56:51.719Z,22.52
2018-03-26T10:58:01.209Z,22.57
2018-03-26T10:59:10.026Z,22.65
2018-03-26T11:00:18.888Z,22.6
2018-03-26T11:01:28.569Z,22.58
2018-03-26T11:02:38.155Z,22.58
2018-03-26T11:03:46.985Z,22.54
2018-03-26T11:04:56.005Z,22.58
2018-03-26T11:06:05.009Z,22.57
2018-03-26T11:07:14.527Z,22.55
2018-03-26T11:08:23.315Z,22.57
2018-03-26T11:09:32.079Z,22.6
2018-03-26T11:10:41.419Z,22.52
2018-03-26T11:11:50.211Z,22.58
2018-03-26T11:12:58.978Z,22.61
2018-03-26T11:14:07.997Z,22.58
2018-03-26T11:15:17.014Z,22.58
2018-03-26T11:16:26.032Z,22.55
2018-03-26T11:17:35.566Z,22.62
2018-03-26T11:18:44.835Z,22.64
2018-03-26T11:19:54.593Z,22.54
2018-03-26T11:21:03.887Z,22.54
2018-03-26T11:22:13.479Z,22.57
2018-03-26T11:23:22.634Z,22.57
2018-03-26T11:24:31.418Z,22.54
2018-03-26T11:25:40.459Z,22.54
2018-03-26T11:26:49.555Z,22.55
2018-03-26T11:27:58.864Z,22.55
2018-03-26T11:29:08.473Z,22.49
2018-03-26T11:30:17.559Z,22.55
2018-03-26T11:31:26.573Z,22.51
2018-03-26T11:32:35.463Z,22.51
2018-03-26T11:33:44.995Z,22.51
2018-03-26T11:34:54.611Z,22.54
2018-03-26T11:36:03.640Z,22.52
2018-03-26T11:37:12.711Z,22.52
2018-03-26T11:38:21.783Z,22.54
2018-03-26T11:39:31.104Z,22.45
2018-03-26T11:40:40.386Z,22.49
2018-03-26T11:41:49.761Z,22.52
2018-03-26T11:42:58.838Z,22.51
2018-03-26T11:44:08.538Z,22.4
2018-03-26T11:45:17.691Z,22.43
2018-03-26T11:46:26.595Z,22.43
2018-03-26T11:47:36.234Z,22.43
2018-03-26T11:48:45.468Z,22.46
2018-03-26T11:49:54.461Z,22.43
2018-03-26T11:51:03.349Z,22.45
2018-03-26T11:52:12.205Z,22.4
2018-03-26T11:53:21.612Z,22.39
2018-03-26T11:54:31.011Z,22.39
2018-03-26T11:55:40.027Z,22.43
2018-03-26T11:56:49.151Z,22.37
2018-03-26T11:58:01.548Z,22.37
2018-03-26T11:59:10.563Z,22.39
2018-03-26T12:00:20.186Z,22.42
2018-03-26T12:01:29.003Z,22.43
2018-03-26T12:02:37.965Z,22.43
2018-03-26T12:03:47.303Z,22.4
2018-03-26T12:04:56.290Z,22.39
2018-03-26T12:06:05.901Z,22.47
2018-03-26T12:07:15.536Z,22.4
2018-03-26T12:08:25.240Z,22.54
2018-03-26T12:09:34.236Z,22.45
2018-03-26T12:10:43.035Z,22.52
2018-03-26T12:11:52.015Z,22.49
2018-03-26T12:13:00.749Z,22.51
2018-03-26T12:14:10.306Z,22.49
2018-03-26T12:15:19.313Z,22.57
2018-03-26T12:16:28.827Z,22.58
2018-03-26T12:17:37.851Z,22.55
2018-03-26T12:18:47.587Z,22.58
2018-03-26T12:19:56.876Z,22.55
2018-03-26T12:21:05.632Z,22.54
2018-03-26T12:22:14.644Z,22.52
2018-03-26T12:23:23.374Z,22.64
2018-03-26T12:24:32.419Z,22.55
2018-03-26T12:25:41.708Z,22.55
2018-03-26T12:26:51.228Z,22.6
2018-03-26T12:28:00.477Z,22.52
2018-03-26T12:29:09.708Z,22.54
2018-03-26T12:30:19.032Z,22.61
2018-03-26T12:31:28.079Z,22.55
2018-03-26T12:32:36.869Z,22.62
2018-03-26T12:33:45.878Z,22.61
2018-03-26T12:34:54.836Z,22.57
2018-03-26T12:36:04.068Z,22.6
2018-03-26T12:37:13.311Z,22.61
2018-03-26T12:38:22.395Z,22.49
2018-03-26T12:39:31.433Z,22.6
2018-03-26T12:40:40.788Z,22.52
2018-03-26T12:41:49.566Z,22.55
2018-03-26T12:42:59.425Z,22.58
2018-03-26T12:44:08.521Z,22.57
2018-03-26T12:45:17.828Z,22.57
2018-03-26T12:46:27.143Z,22.57
2018-03-26T12:47:35.892Z,22.57
2018-03-26T12:48:45.242Z,22.52
2018-03-26T12:49:53.999Z,22.62
2018-03-26T12:51:03.312Z,22.6
2018-03-26T12:52:12.885Z,22.52
2018-03-26T12:53:21.987Z,22.58
2018-03-26T12:54:31.065Z,22.55
2018-03-26T12:55:40.239Z,22.52
2018-03-26T12:56:49.257Z,22.55
2018-03-26T12:57:58.638Z,22.57
2018-03-26T12:59:07.441Z,22.54
2018-03-26T13:00:16.283Z,22.58
2018-03-26T13:01:25.642Z,22.58
2018-03-26T13:02:34.457Z,22.49
2018-03-26T13:03:43.528Z,22.58
2018-03-26T13:04:52.852Z,22.58
2018-03-26T13:06:01.669Z,22.58
2018-03-26T13:07:11.521Z,22.52
2018-03-26T13:08:20.578Z,22.57
2018-03-26T13:09:29.906Z,22.55
2018-03-26T13:10:38.631Z,22.6
2018-03-26T13:11:47.369Z,22.55
2018-03-26T13:12:56.640Z,22.52
2018-03-26T13:14:05.935Z,22.58
2018-03-26T13:15:15.197Z,22.61
2018-03-26T13:16:24.778Z,22.57
2018-03-26T13:17:34.149Z,22.55
2018-03-26T13:18:43.042Z,22.57
2018-03-26T13:19:52.334Z,22.6
2018-03-26T13:21:02.021Z,22.6
2018-03-26T13:22:11.300Z,22.55
2018-03-26T13:23:20.522Z,22.57
2018-03-26T13:24:29.516Z,22.6
2018-03-26T13:25:38.802Z,22.58
2018-03-26T13:26:48.615Z,22.47
2018-03-26T13:27:57.876Z,22.54
2018-03-26T13:29:06.854Z,22.58
2018-03-26T13:30:16.095Z,22.55
2018-03-26T13:31:25.137Z,22.57
2018-03-26T13:32:33.950Z,22.52
2018-03-26T13:33:43.553Z,22.58
2018-03-26T13:34:52.688Z,22.58
2018-03-26T13:36:02.095Z,22.51
2018-03-26T13:37:11.394Z,22.58
2018-03-26T13:38:20.683Z,22.61
2018-03-26T13:39:30.256Z,22.55
2018-03-26T13:40:39.150Z,22.54
2018-03-26T13:41:47.922Z,22.55
2018-03-26T13:42:57.256Z,22.54
2018-03-26T13:44:06.786Z,22.54
2018-03-26T13:45:15.522Z,22.57
2018-03-26T13:46:25.333Z,22.54
2018-03-26T13:47:34.850Z,22.54
2018-03-26T13:48:44.115Z,22.62
2018-03-26T13:49:53.144Z,22.52
2018-03-26T13:51:02.524Z,22.57
2018-03-26T13:52:11.616Z,22.57
2018-03-26T13:53:20.990Z,22.57
2018-03-26T13:54:29.902Z,22.57
2018-03-26T13:55:39.021Z,22.61
2018-03-26T13:56:48.396Z,22.52
2018-03-26T13:57:57.741Z,22.57
2018-03-26T13:59:06.789Z,22.57
2018-03-26T14:00:16.057Z,22.6
2018-03-26T14:01:25.109Z,22.57
2018-03-26T14:02:34.185Z,22.6
2018-03-26T14:03:43.252Z,22.52
2018-03-26T14:04:52.577Z,22.51
2018-03-26T14:06:01.560Z,22.55
2018-03-26T14:07:10.575Z,22.6
2018-03-26T14:08:19.362Z,22.6
2018-03-26T14:09:28.449Z,22.6
2018-03-26T14:10:37.780Z,22.57
2018-03-26T14:11:46.880Z,22.58
2018-03-26T14:12:56.182Z,22.52
2018-03-26T14:14:06.366Z,22.61
2018-03-26T14:15:15.466Z,22.62
2018-03-26T14:16:24.841Z,22.62
2018-03-26T14:17:33.654Z,22.67
2018-03-26T14:18:42.978Z,22.54
2018-03-26T14:19:52.377Z,22.68
2018-03-26T14:21:01.670Z,22.62
2018-03-26T14:22:10.936Z,22.55
2018-03-26T14:23:19.953Z,22.65
2018-03-26T14:24:28.987Z,22.65
2018-03-26T14:25:38.589Z,22.62
2018-03-26T14:26:47.442Z,22.6
2018-03-26T14:27:56.457Z,22.67
2018-03-26T14:29:05.881Z,22.57
2018-03-26T14:30:14.664Z,22.7
2018-03-26T14:31:23.917Z,22.67
2018-03-26T14:32:32.943Z,22.6
2018-03-26T14:33:42.086Z,22.6
2018-03-26T14:34:51.334Z,22.73
2018-03-26T14:36:00.674Z,22.58
2018-03-26T14:37:09.474Z,22.6
2018-03-26T14:38:18.248Z,22.57
2018-03-26T14:39:27.408Z,22.57
2018-03-26T14:40:36.785Z,22.62
2018-03-26T14:41:46.132Z,22.62
2018-03-26T14:42:54.934Z,22.55
2018-03-26T14:44:03.655Z,22.61
2018-03-26T14:45:12.980Z,22.6
2018-03-26T14:46:22.552Z,22.62
2018-03-26T14:47:31.303Z,22.64
2018-03-26T14:48:40.116Z,22.58
2018-03-26T14:49:49.600Z,22.55
2018-03-26T14:50:59.212Z,22.54
2018-03-26T14:52:08.554Z,22.67
2018-03-26T14:53:17.261Z,22.54
2018-03-26T14:54:26.391Z,22.55
2018-03-26T14:55:35.493Z,22.62